sensor_id;sensor_type;location;lat;lon;timestamp;P1;durP1;ratioP1;P2;durP2;ratioP2
70406;SDS011;57821;52.202;0.154;2023-09-19T00:00:35;11.90;;;1.67;;
70406;SDS011;57821;52.202;0.154;2023-09-19T00:03:02;10.52;;;1.65;;
70406;SDS011;57821;52.202;0.154;2023-09-19T00:05:33;10.30;;;1.70;;
70406;SDS011;57821;52.202;0.154;2023-09-19T00:08:01;9.73;;;2.20;;
70406;SDS011;57821;52.202;0.154;2023-09-19T00:10:32;8.93;;;2.15;;
70406;SDS011;57821;52.202;0.154;2023-09-19T00:13:03;8.05;;;1.60;;
70406;SDS011;57821;52.202;0.154;2023-09-19T00:15:38;9.75;;;1.55;;
70406;SDS011;57821;52.202;0.154;2023-09-19T00:18:07;12.38;;;2.30;;
70406;SDS011;57821;52.202;0.154;2023-09-19T00:20:35;8.02;;;1.80;;
70406;SDS011;57821;52.202;0.154;2023-09-19T00:23:02;11.65;;;1.95;;
70406;SDS011;57821;52.202;0.154;2023-09-19T00:25:30;10.60;;;1.55;;
70406;SDS011;57821;52.202;0.154;2023-09-19T00:28:01;10.90;;;1.80;;
70406;SDS011;57821;52.202;0.154;2023-09-19T00:30:28;6.88;;;1.73;;
70406;SDS011;57821;52.202;0.154;2023-09-19T00:32:55;7.90;;;1.35;;
70406;SDS011;57821;52.202;0.154;2023-09-19T00:35:22;7.60;;;1.73;;
70406;SDS011;57821;52.202;0.154;2023-09-19T00:37:50;8.18;;;1.45;;
70406;SDS011;57821;52.202;0.154;2023-09-19T00:40:17;18.15;;;4.13;;
70406;SDS011;57821;52.202;0.154;2023-09-19T00:42:45;8.20;;;1.48;;
70406;SDS011;57821;52.202;0.154;2023-09-19T00:45:13;7.72;;;1.45;;
70406;SDS011;57821;52.202;0.154;2023-09-19T00:47:50;9.50;;;1.40;;
70406;SDS011;57821;52.202;0.154;2023-09-19T00:50:18;9.48;;;1.27;;
70406;SDS011;57821;52.202;0.154;2023-09-19T00:52:48;9.23;;;1.80;;
70406;SDS011;57821;52.202;0.154;2023-09-19T00:55:16;8.45;;;1.35;;
70406;SDS011;57821;52.202;0.154;2023-09-19T00:57:46;9.90;;;1.20;;
70406;SDS011;57821;52.202;0.154;2023-09-19T01:00:16;8.05;;;1.30;;
70406;SDS011;57821;52.202;0.154;2023-09-19T01:02:45;10.95;;;1.60;;
70406;SDS011;57821;52.202;0.154;2023-09-19T01:05:13;10.73;;;2.45;;
70406;SDS011;57821;52.202;0.154;2023-09-19T01:07:40;5.45;;;1.35;;
70406;SDS011;57821;52.202;0.154;2023-09-19T01:10:08;11.02;;;1.77;;
70406;SDS011;57821;52.202;0.154;2023-09-19T01:17:59;12.93;;;2.08;;
70406;SDS011;57821;52.202;0.154;2023-09-19T01:20:45;10.32;;;1.73;;
70406;SDS011;57821;52.202;0.154;2023-09-19T01:23:29;12.57;;;2.50;;
70406;SDS011;57821;52.202;0.154;2023-09-19T01:26:05;6.25;;;1.50;;
70406;SDS011;57821;52.202;0.154;2023-09-19T01:29:00;10.18;;;2.50;;
70406;SDS011;57821;52.202;0.154;2023-09-19T01:31:39;8.45;;;1.52;;
70406;SDS011;57821;52.202;0.154;2023-09-19T01:34:09;10.93;;;2.28;;
70406;SDS011;57821;52.202;0.154;2023-09-19T01:36:36;15.90;;;3.00;;
70406;SDS011;57821;52.202;0.154;2023-09-19T01:39:06;13.23;;;1.95;;
70406;SDS011;57821;52.202;0.154;2023-09-19T01:47:41;11.57;;;2.22;;
70406;SDS011;57821;52.202;0.154;2023-09-19T01:52:45;9.90;;;2.72;;
70406;SDS011;57821;52.202;0.154;2023-09-19T01:55:18;14.30;;;3.42;;
70406;SDS011;57821;52.202;0.154;2023-09-19T01:57:51;9.95;;;2.10;;
70406;SDS011;57821;52.202;0.154;2023-09-19T02:00:25;11.27;;;2.10;;
70406;SDS011;57821;52.202;0.154;2023-09-19T02:02:53;12.85;;;1.95;;
70406;SDS011;57821;52.202;0.154;2023-09-19T02:05:25;13.65;;;2.75;;
70406;SDS011;57821;52.202;0.154;2023-09-19T02:07:54;13.13;;;1.98;;
70406;SDS011;57821;52.202;0.154;2023-09-19T02:10:22;10.98;;;1.98;;
70406;SDS011;57821;52.202;0.154;2023-09-19T02:12:50;15.52;;;2.92;;
70406;SDS011;57821;52.202;0.154;2023-09-19T02:15:17;10.38;;;1.73;;
70406;SDS011;57821;52.202;0.154;2023-09-19T02:17:44;10.98;;;3.05;;
70406;SDS011;57821;52.202;0.154;2023-09-19T02:20:12;15.80;;;1.90;;
70406;SDS011;57821;52.202;0.154;2023-09-19T02:22:41;10.68;;;2.00;;
70406;SDS011;57821;52.202;0.154;2023-09-19T02:25:08;20.23;;;2.60;;
70406;SDS011;57821;52.202;0.154;2023-09-19T02:27:35;14.88;;;2.15;;
70406;SDS011;57821;52.202;0.154;2023-09-19T02:30:03;22.15;;;2.55;;
70406;SDS011;57821;52.202;0.154;2023-09-19T02:32:30;14.32;;;2.70;;
70406;SDS011;57821;52.202;0.154;2023-09-19T02:34:57;12.15;;;2.20;;
70406;SDS011;57821;52.202;0.154;2023-09-19T02:37:26;14.43;;;2.50;;
70406;SDS011;57821;52.202;0.154;2023-09-19T02:39:54;12.50;;;2.20;;
70406;SDS011;57821;52.202;0.154;2023-09-19T02:42:20;11.52;;;2.00;;
70406;SDS011;57821;52.202;0.154;2023-09-19T02:44:47;15.93;;;2.38;;
70406;SDS011;57821;52.202;0.154;2023-09-19T02:47:14;11.70;;;2.38;;
70406;SDS011;57821;52.202;0.154;2023-09-19T02:49:41;15.13;;;2.58;;
70406;SDS011;57821;52.202;0.154;2023-09-19T02:52:09;16.63;;;2.60;;
70406;SDS011;57821;52.202;0.154;2023-09-19T02:54:38;20.50;;;2.50;;
70406;SDS011;57821;52.202;0.154;2023-09-19T02:57:05;15.98;;;2.45;;
70406;SDS011;57821;52.202;0.154;2023-09-19T02:59:33;15.80;;;2.40;;
70406;SDS011;57821;52.202;0.154;2023-09-19T03:02:04;15.30;;;2.67;;
70406;SDS011;57821;52.202;0.154;2023-09-19T03:04:31;21.58;;;2.72;;
70406;SDS011;57821;52.202;0.154;2023-09-19T03:06:59;14.02;;;2.70;;
70406;SDS011;57821;52.202;0.154;2023-09-19T03:09:28;15.98;;;2.20;;
70406;SDS011;57821;52.202;0.154;2023-09-19T03:11:54;13.93;;;3.17;;
70406;SDS011;57821;52.202;0.154;2023-09-19T03:14:21;15.02;;;2.80;;
70406;SDS011;57821;52.202;0.154;2023-09-19T03:16:49;21.58;;;4.25;;
70406;SDS011;57821;52.202;0.154;2023-09-19T03:19:17;16.70;;;3.50;;
70406;SDS011;57821;52.202;0.154;2023-09-19T03:21:44;14.40;;;2.20;;
70406;SDS011;57821;52.202;0.154;2023-09-19T03:24:11;16.05;;;4.10;;
70406;SDS011;57821;52.202;0.154;2023-09-19T03:26:38;18.63;;;2.80;;
70406;SDS011;57821;52.202;0.154;2023-09-19T03:29:05;16.40;;;2.72;;
70406;SDS011;57821;52.202;0.154;2023-09-19T03:31:37;17.70;;;3.22;;
70406;SDS011;57821;52.202;0.154;2023-09-19T03:34:07;14.13;;;3.13;;
70406;SDS011;57821;52.202;0.154;2023-09-19T03:36:33;20.77;;;3.05;;
70406;SDS011;57821;52.202;0.154;2023-09-19T03:39:01;18.58;;;3.45;;
70406;SDS011;57821;52.202;0.154;2023-09-19T03:41:31;17.63;;;3.03;;
70406;SDS011;57821;52.202;0.154;2023-09-19T03:43:59;15.82;;;3.33;;
70406;SDS011;57821;52.202;0.154;2023-09-19T03:46:26;18.05;;;2.88;;
70406;SDS011;57821;52.202;0.154;2023-09-19T03:48:53;14.20;;;2.80;;
70406;SDS011;57821;52.202;0.154;2023-09-19T03:51:21;18.85;;;2.70;;
70406;SDS011;57821;52.202;0.154;2023-09-19T03:53:48;19.05;;;2.60;;
70406;SDS011;57821;52.202;0.154;2023-09-19T03:56:18;20.23;;;3.72;;
70406;SDS011;57821;52.202;0.154;2023-09-19T03:58:45;18.83;;;2.88;;
70406;SDS011;57821;52.202;0.154;2023-09-19T04:01:12;18.60;;;3.03;;
70406;SDS011;57821;52.202;0.154;2023-09-19T04:03:40;13.20;;;2.88;;
70406;SDS011;57821;52.202;0.154;2023-09-19T04:06:14;21.60;;;2.67;;
70406;SDS011;57821;52.202;0.154;2023-09-19T04:08:42;15.10;;;2.60;;
70406;SDS011;57821;52.202;0.154;2023-09-19T04:11:10;17.48;;;3.30;;
70406;SDS011;57821;52.202;0.154;2023-09-19T04:13:38;13.80;;;2.63;;
70406;SDS011;57821;52.202;0.154;2023-09-19T04:16:05;20.40;;;4.28;;
70406;SDS011;57821;52.202;0.154;2023-09-19T04:18:33;19.67;;;3.78;;
70406;SDS011;57821;52.202;0.154;2023-09-19T04:21:05;17.25;;;3.72;;
70406;SDS011;57821;52.202;0.154;2023-09-19T04:23:32;20.80;;;2.97;;
70406;SDS011;57821;52.202;0.154;2023-09-19T04:25:59;20.08;;;3.90;;
70406;SDS011;57821;52.202;0.154;2023-09-19T04:28:26;22.27;;;3.78;;
70406;SDS011;57821;52.202;0.154;2023-09-19T04:30:54;21.15;;;3.03;;
70406;SDS011;57821;52.202;0.154;2023-09-19T04:33:21;15.73;;;2.63;;
70406;SDS011;57821;52.202;0.154;2023-09-19T04:35:49;13.43;;;3.35;;
70406;SDS011;57821;52.202;0.154;2023-09-19T04:38:20;18.02;;;3.13;;
70406;SDS011;57821;52.202;0.154;2023-09-19T04:40:46;17.42;;;2.90;;
70406;SDS011;57821;52.202;0.154;2023-09-19T04:43:13;24.30;;;5.47;;
70406;SDS011;57821;52.202;0.154;2023-09-19T04:45:41;19.00;;;3.00;;
70406;SDS011;57821;52.202;0.154;2023-09-19T04:48:08;18.63;;;3.35;;
70406;SDS011;57821;52.202;0.154;2023-09-19T04:50:35;16.13;;;3.13;;
70406;SDS011;57821;52.202;0.154;2023-09-19T04:53:03;12.98;;;2.60;;
70406;SDS011;57821;52.202;0.154;2023-09-19T04:55:31;21.63;;;3.28;;
70406;SDS011;57821;52.202;0.154;2023-09-19T04:57:59;16.50;;;2.85;;
70406;SDS011;57821;52.202;0.154;2023-09-19T05:00:26;14.30;;;2.83;;
70406;SDS011;57821;52.202;0.154;2023-09-19T05:02:56;16.80;;;4.68;;
70406;SDS011;57821;52.202;0.154;2023-09-19T05:05:23;15.93;;;2.80;;
70406;SDS011;57821;52.202;0.154;2023-09-19T05:07:51;17.88;;;3.40;;
70406;SDS011;57821;52.202;0.154;2023-09-19T05:10:21;21.20;;;3.13;;
70406;SDS011;57821;52.202;0.154;2023-09-19T05:12:48;14.50;;;2.65;;
70406;SDS011;57821;52.202;0.154;2023-09-19T05:15:18;19.95;;;3.75;;
70406;SDS011;57821;52.202;0.154;2023-09-19T05:17:48;18.55;;;2.70;;
70406;SDS011;57821;52.202;0.154;2023-09-19T05:20:21;19.77;;;3.90;;
70406;SDS011;57821;52.202;0.154;2023-09-19T05:25:30;18.27;;;2.97;;
70406;SDS011;57821;52.202;0.154;2023-09-19T05:27:58;20.23;;;2.63;;
70406;SDS011;57821;52.202;0.154;2023-09-19T05:30:25;15.75;;;2.95;;
70406;SDS011;57821;52.202;0.154;2023-09-19T05:32:53;22.77;;;3.22;;
70406;SDS011;57821;52.202;0.154;2023-09-19T05:35:21;19.95;;;3.65;;
70406;SDS011;57821;52.202;0.154;2023-09-19T05:37:51;21.00;;;4.47;;
70406;SDS011;57821;52.202;0.154;2023-09-19T05:40:19;21.50;;;3.35;;
70406;SDS011;57821;52.202;0.154;2023-09-19T05:42:46;16.05;;;3.60;;
70406;SDS011;57821;52.202;0.154;2023-09-19T05:45:13;17.95;;;2.83;;
70406;SDS011;57821;52.202;0.154;2023-09-19T05:47:40;14.15;;;3.10;;
70406;SDS011;57821;52.202;0.154;2023-09-19T05:52:38;15.55;;;2.60;;
70406;SDS011;57821;52.202;0.154;2023-09-19T05:55:05;16.40;;;3.05;;
70406;SDS011;57821;52.202;0.154;2023-09-19T05:57:34;17.80;;;2.47;;
70406;SDS011;57821;52.202;0.154;2023-09-19T06:00:01;13.45;;;2.75;;
70406;SDS011;57821;52.202;0.154;2023-09-19T06:02:37;14.65;;;2.70;;
70406;SDS011;57821;52.202;0.154;2023-09-19T06:05:05;18.40;;;2.38;;
70406;SDS011;57821;52.202;0.154;2023-09-19T06:07:38;10.98;;;2.22;;
70406;SDS011;57821;52.202;0.154;2023-09-19T06:10:04;13.10;;;2.55;;
70406;SDS011;57821;52.202;0.154;2023-09-19T06:12:32;14.43;;;2.78;;
70406;SDS011;57821;52.202;0.154;2023-09-19T06:15:00;13.90;;;2.22;;
70406;SDS011;57821;52.202;0.154;2023-09-19T06:17:26;13.68;;;2.05;;
70406;SDS011;57821;52.202;0.154;2023-09-19T06:19:54;21.42;;;4.13;;
70406;SDS011;57821;52.202;0.154;2023-09-19T06:22:22;15.95;;;2.60;;
70406;SDS011;57821;52.202;0.154;2023-09-19T06:24:50;16.00;;;2.70;;
70406;SDS011;57821;52.202;0.154;2023-09-19T06:27:17;16.58;;;3.30;;
70406;SDS011;57821;52.202;0.154;2023-09-19T06:29:43;17.27;;;2.70;;
70406;SDS011;57821;52.202;0.154;2023-09-19T06:32:10;19.77;;;2.40;;
70406;SDS011;57821;52.202;0.154;2023-09-19T06:34:37;15.02;;;2.72;;
70406;SDS011;57821;52.202;0.154;2023-09-19T06:37:05;12.60;;;2.00;;
70406;SDS011;57821;52.202;0.154;2023-09-19T06:39:32;11.02;;;2.15;;
70406;SDS011;57821;52.202;0.154;2023-09-19T06:41:59;14.82;;;2.90;;
70406;SDS011;57821;52.202;0.154;2023-09-19T06:44:28;14.88;;;2.33;;
70406;SDS011;57821;52.202;0.154;2023-09-19T06:46:56;15.75;;;2.28;;
70406;SDS011;57821;52.202;0.154;2023-09-19T06:49:22;14.43;;;2.22;;
70406;SDS011;57821;52.202;0.154;2023-09-19T06:51:49;12.77;;;2.50;;
70406;SDS011;57821;52.202;0.154;2023-09-19T06:54:16;8.73;;;1.70;;
70406;SDS011;57821;52.202;0.154;2023-09-19T06:56:44;11.70;;;1.48;;
70406;SDS011;57821;52.202;0.154;2023-09-19T06:59:11;16.23;;;2.60;;
70406;SDS011;57821;52.202;0.154;2023-09-19T07:01:40;14.98;;;2.50;;
70406;SDS011;57821;52.202;0.154;2023-09-19T07:04:07;9.73;;;1.95;;
70406;SDS011;57821;52.202;0.154;2023-09-19T07:06:34;13.05;;;2.83;;
70406;SDS011;57821;52.202;0.154;2023-09-19T07:09:02;14.48;;;1.60;;
70406;SDS011;57821;52.202;0.154;2023-09-19T07:11:28;10.70;;;1.77;;
70406;SDS011;57821;52.202;0.154;2023-09-19T07:13:57;18.98;;;2.70;;
70406;SDS011;57821;52.202;0.154;2023-09-19T07:16:24;16.90;;;2.92;;
70406;SDS011;57821;52.202;0.154;2023-09-19T07:18:56;12.65;;;2.15;;
70406;SDS011;57821;52.202;0.154;2023-09-19T07:21:23;11.43;;;1.65;;
70406;SDS011;57821;52.202;0.154;2023-09-19T07:23:50;11.77;;;1.80;;
70406;SDS011;57821;52.202;0.154;2023-09-19T07:26:18;15.35;;;1.88;;
70406;SDS011;57821;52.202;0.154;2023-09-19T07:28:45;11.55;;;1.80;;
70406;SDS011;57821;52.202;0.154;2023-09-19T07:31:12;13.30;;;2.22;;
70406;SDS011;57821;52.202;0.154;2023-09-19T07:33:40;11.93;;;2.03;;
70406;SDS011;57821;52.202;0.154;2023-09-19T07:36:09;10.88;;;1.73;;
70406;SDS011;57821;52.202;0.154;2023-09-19T07:38:37;12.20;;;2.17;;
70406;SDS011;57821;52.202;0.154;2023-09-19T07:41:04;13.68;;;1.85;;
70406;SDS011;57821;52.202;0.154;2023-09-19T07:43:31;11.00;;;2.28;;
70406;SDS011;57821;52.202;0.154;2023-09-19T07:46:09;10.80;;;1.83;;
70406;SDS011;57821;52.202;0.154;2023-09-19T07:48:35;13.68;;;1.77;;
70406;SDS011;57821;52.202;0.154;2023-09-19T07:51:04;13.45;;;2.20;;
70406;SDS011;57821;52.202;0.154;2023-09-19T07:53:33;11.32;;;2.00;;
70406;SDS011;57821;52.202;0.154;2023-09-19T07:56:05;10.57;;;2.05;;
70406;SDS011;57821;52.202;0.154;2023-09-19T07:58:33;13.68;;;1.90;;
70406;SDS011;57821;52.202;0.154;2023-09-19T08:01:03;11.90;;;2.15;;
70406;SDS011;57821;52.202;0.154;2023-09-19T08:05:58;10.02;;;2.10;;
70406;SDS011;57821;52.202;0.154;2023-09-19T08:08:25;10.65;;;2.45;;
70406;SDS011;57821;52.202;0.154;2023-09-19T08:10:55;14.32;;;2.42;;
70406;SDS011;57821;52.202;0.154;2023-09-19T08:13:24;10.65;;;2.15;;
70406;SDS011;57821;52.202;0.154;2023-09-19T08:15:51;10.95;;;1.83;;
70406;SDS011;57821;52.202;0.154;2023-09-19T08:18:19;11.55;;;2.22;;
70406;SDS011;57821;52.202;0.154;2023-09-19T08:20:50;11.63;;;2.53;;
70406;SDS011;57821;52.202;0.154;2023-09-19T08:23:18;9.77;;;1.83;;
70406;SDS011;57821;52.202;0.154;2023-09-19T08:25:47;14.23;;;3.47;;
70406;SDS011;57821;52.202;0.154;2023-09-19T08:28:14;8.65;;;1.90;;
70406;SDS011;57821;52.202;0.154;2023-09-19T08:30:45;7.25;;;1.60;;
70406;SDS011;57821;52.202;0.154;2023-09-19T08:33:12;9.32;;;1.80;;
70406;SDS011;57821;52.202;0.154;2023-09-19T08:35:42;11.25;;;2.70;;
70406;SDS011;57821;52.202;0.154;2023-09-19T08:38:09;10.68;;;2.20;;
70406;SDS011;57821;52.202;0.154;2023-09-19T08:40:38;9.88;;;2.33;;
70406;SDS011;57821;52.202;0.154;2023-09-19T08:43:07;11.68;;;2.35;;
70406;SDS011;57821;52.202;0.154;2023-09-19T08:45:34;10.30;;;2.15;;
70406;SDS011;57821;52.202;0.154;2023-09-19T08:50:47;9.43;;;2.60;;
70406;SDS011;57821;52.202;0.154;2023-09-19T08:55:59;11.52;;;2.78;;
70406;SDS011;57821;52.202;0.154;2023-09-19T08:58:34;12.70;;;2.75;;
70406;SDS011;57821;52.202;0.154;2023-09-19T09:01:20;20.13;;;3.60;;
70406;SDS011;57821;52.202;0.154;2023-09-19T09:03:54;13.82;;;3.05;;
70406;SDS011;57821;52.202;0.154;2023-09-19T09:06:22;14.50;;;3.42;;
70406;SDS011;57821;52.202;0.154;2023-09-19T09:08:50;10.82;;;2.45;;
70406;SDS011;57821;52.202;0.154;2023-09-19T09:11:18;15.50;;;3.35;;
70406;SDS011;57821;52.202;0.154;2023-09-19T09:13:46;13.95;;;2.88;;
70406;SDS011;57821;52.202;0.154;2023-09-19T09:16:13;12.15;;;3.05;;
70406;SDS011;57821;52.202;0.154;2023-09-19T09:18:45;12.60;;;3.15;;
70406;SDS011;57821;52.202;0.154;2023-09-19T09:21:13;12.77;;;2.88;;
70406;SDS011;57821;52.202;0.154;2023-09-19T09:23:41;9.32;;;2.50;;
70406;SDS011;57821;52.202;0.154;2023-09-19T09:26:08;10.48;;;2.95;;
70406;SDS011;57821;52.202;0.154;2023-09-19T09:28:36;13.73;;;2.80;;
70406;SDS011;57821;52.202;0.154;2023-09-19T09:31:24;16.13;;;2.95;;
70406;SDS011;57821;52.202;0.154;2023-09-19T09:33:55;15.02;;;2.90;;
70406;SDS011;57821;52.202;0.154;2023-09-19T09:36:38;9.23;;;2.75;;
70406;SDS011;57821;52.202;0.154;2023-09-19T09:39:07;9.68;;;2.70;;
70406;SDS011;57821;52.202;0.154;2023-09-19T09:41:48;7.20;;;2.50;;
70406;SDS011;57821;52.202;0.154;2023-09-19T09:44:16;13.25;;;3.35;;
70406;SDS011;57821;52.202;0.154;2023-09-19T09:46:47;14.43;;;3.05;;
70406;SDS011;57821;52.202;0.154;2023-09-19T09:49:24;11.68;;;2.90;;
70406;SDS011;57821;52.202;0.154;2023-09-19T09:51:59;14.18;;;3.10;;
70406;SDS011;57821;52.202;0.154;2023-09-19T09:54:57;14.50;;;2.78;;
70406;SDS011;57821;52.202;0.154;2023-09-19T09:57:31;10.80;;;2.80;;
70406;SDS011;57821;52.202;0.154;2023-09-19T10:00:00;13.07;;;2.80;;
70406;SDS011;57821;52.202;0.154;2023-09-19T10:02:40;15.43;;;3.20;;
70406;SDS011;57821;52.202;0.154;2023-09-19T10:05:15;10.77;;;2.60;;
70406;SDS011;57821;52.202;0.154;2023-09-19T10:07:55;13.52;;;2.70;;
70406;SDS011;57821;52.202;0.154;2023-09-19T10:10:30;12.30;;;3.10;;
70406;SDS011;57821;52.202;0.154;2023-09-19T10:13:25;13.82;;;3.45;;
70406;SDS011;57821;52.202;0.154;2023-09-19T10:18:24;11.25;;;2.63;;
70406;SDS011;57821;52.202;0.154;2023-09-19T10:20:51;11.10;;;2.63;;
70406;SDS011;57821;52.202;0.154;2023-09-19T10:23:19;11.57;;;2.47;;
70406;SDS011;57821;52.202;0.154;2023-09-19T10:25:50;9.63;;;2.33;;
70406;SDS011;57821;52.202;0.154;2023-09-19T10:28:19;15.43;;;2.50;;
70406;SDS011;57821;52.202;0.154;2023-09-19T10:33:20;17.10;;;2.85;;
70406;SDS011;57821;52.202;0.154;2023-09-19T10:35:49;14.07;;;3.22;;
70406;SDS011;57821;52.202;0.154;2023-09-19T10:38:22;11.68;;;3.22;;
70406;SDS011;57821;52.202;0.154;2023-09-19T10:40:52;11.57;;;2.50;;
70406;SDS011;57821;52.202;0.154;2023-09-19T10:43:21;11.57;;;2.55;;
70406;SDS011;57821;52.202;0.154;2023-09-19T10:48:20;13.90;;;2.20;;
70406;SDS011;57821;52.202;0.154;2023-09-19T10:50:55;11.35;;;2.20;;
70406;SDS011;57821;52.202;0.154;2023-09-19T10:53:26;11.63;;;2.13;;
70406;SDS011;57821;52.202;0.154;2023-09-19T10:55:57;12.57;;;2.67;;
70406;SDS011;57821;52.202;0.154;2023-09-19T10:58:29;11.32;;;2.67;;
70406;SDS011;57821;52.202;0.154;2023-09-19T11:01:04;11.20;;;2.00;;
70406;SDS011;57821;52.202;0.154;2023-09-19T11:03:33;11.00;;;1.95;;
70406;SDS011;57821;52.202;0.154;2023-09-19T11:08:57;9.38;;;2.10;;
70406;SDS011;57821;52.202;0.154;2023-09-19T11:11:43;8.30;;;2.00;;
70406;SDS011;57821;52.202;0.154;2023-09-19T11:25:43;11.35;;;2.28;;
70406;SDS011;57821;52.202;0.154;2023-09-19T11:30:50;8.98;;;2.50;;
70406;SDS011;57821;52.202;0.154;2023-09-19T11:33:23;8.45;;;2.28;;
70406;SDS011;57821;52.202;0.154;2023-09-19T11:43:53;10.95;;;2.22;;
70406;SDS011;57821;52.202;0.154;2023-09-19T11:49:19;8.07;;;2.00;;
70406;SDS011;57821;52.202;0.154;2023-09-19T11:51:52;9.73;;;2.20;;
70406;SDS011;57821;52.202;0.154;2023-09-19T11:54:20;9.73;;;2.00;;
70406;SDS011;57821;52.202;0.154;2023-09-19T11:56:58;8.45;;;1.67;;
70406;SDS011;57821;52.202;0.154;2023-09-19T11:59:26;10.82;;;2.10;;
70406;SDS011;57821;52.202;0.154;2023-09-19T12:01:57;10.13;;;2.70;;
70406;SDS011;57821;52.202;0.154;2023-09-19T12:07:15;7.68;;;2.03;;
70406;SDS011;57821;52.202;0.154;2023-09-19T12:09:47;9.55;;;2.00;;
70406;SDS011;57821;52.202;0.154;2023-09-19T12:12:19;9.35;;;2.40;;
70406;SDS011;57821;52.202;0.154;2023-09-19T12:14:49;9.05;;;2.17;;
70406;SDS011;57821;52.202;0.154;2023-09-19T12:17:17;9.52;;;2.47;;
70406;SDS011;57821;52.202;0.154;2023-09-19T12:19:51;9.57;;;2.20;;
70406;SDS011;57821;52.202;0.154;2023-09-19T12:22:19;14.27;;;2.53;;
70406;SDS011;57821;52.202;0.154;2023-09-19T12:24:49;11.75;;;1.95;;
70406;SDS011;57821;52.202;0.154;2023-09-19T12:27:17;9.20;;;2.67;;
70406;SDS011;57821;52.202;0.154;2023-09-19T12:29:44;7.72;;;2.10;;
70406;SDS011;57821;52.202;0.154;2023-09-19T12:32:34;10.98;;;2.28;;
70406;SDS011;57821;52.202;0.154;2023-09-19T12:35:01;10.88;;;2.50;;
70406;SDS011;57821;52.202;0.154;2023-09-19T12:37:33;10.65;;;2.20;;
70406;SDS011;57821;52.202;0.154;2023-09-19T12:40:07;9.23;;;2.38;;
70406;SDS011;57821;52.202;0.154;2023-09-19T12:42:44;10.77;;;2.17;;
70406;SDS011;57821;52.202;0.154;2023-09-19T12:45:11;10.77;;;2.45;;
70406;SDS011;57821;52.202;0.154;2023-09-19T12:48:17;8.55;;;1.80;;
70406;SDS011;57821;52.202;0.154;2023-09-19T12:53:56;9.27;;;2.13;;
70406;SDS011;57821;52.202;0.154;2023-09-19T12:56:24;9.48;;;2.17;;
70406;SDS011;57821;52.202;0.154;2023-09-19T13:01:20;9.57;;;1.90;;
70406;SDS011;57821;52.202;0.154;2023-09-19T13:06:47;7.40;;;1.65;;
70406;SDS011;57821;52.202;0.154;2023-09-19T13:09:18;11.07;;;1.80;;
70406;SDS011;57821;52.202;0.154;2023-09-19T13:11:47;9.93;;;1.98;;
70406;SDS011;57821;52.202;0.154;2023-09-19T13:14:17;6.78;;;1.67;;
70406;SDS011;57821;52.202;0.154;2023-09-19T13:22:52;8.18;;;1.98;;
70406;SDS011;57821;52.202;0.154;2023-09-19T13:25:11;9.55;;;2.00;;
70406;SDS011;57821;52.202;0.154;2023-09-19T13:27:42;10.75;;;1.83;;
70406;SDS011;57821;52.202;0.154;2023-09-19T13:30:11;6.82;;;1.75;;
70406;SDS011;57821;52.202;0.154;2023-09-19T13:32:39;6.85;;;2.00;;
70406;SDS011;57821;52.202;0.154;2023-09-19T13:35:07;11.15;;;2.25;;
70406;SDS011;57821;52.202;0.154;2023-09-19T13:37:38;6.70;;;1.67;;
70406;SDS011;57821;52.202;0.154;2023-09-19T13:40:09;6.07;;;1.33;;
70406;SDS011;57821;52.202;0.154;2023-09-19T13:42:37;8.02;;;1.70;;
70406;SDS011;57821;52.202;0.154;2023-09-19T13:45:04;7.85;;;1.98;;
70406;SDS011;57821;52.202;0.154;2023-09-19T13:47:32;12.23;;;2.50;;
70406;SDS011;57821;52.202;0.154;2023-09-19T13:49:59;6.32;;;1.52;;
70406;SDS011;57821;52.202;0.154;2023-09-19T13:52:29;6.25;;;1.80;;
70406;SDS011;57821;52.202;0.154;2023-09-19T13:54:57;8.75;;;1.70;;
70406;SDS011;57821;52.202;0.154;2023-09-19T13:57:24;23.10;;;3.10;;
70406;SDS011;57821;52.202;0.154;2023-09-19T13:59:55;12.80;;;3.10;;
70406;SDS011;57821;52.202;0.154;2023-09-19T14:02:22;6.28;;;1.80;;
70406;SDS011;57821;52.202;0.154;2023-09-19T14:04:49;7.28;;;2.00;;
70406;SDS011;57821;52.202;0.154;2023-09-19T14:07:16;8.23;;;1.90;;
70406;SDS011;57821;52.202;0.154;2023-09-19T14:09:44;6.22;;;1.55;;
70406;SDS011;57821;52.202;0.154;2023-09-19T14:12:11;6.32;;;1.55;;
70406;SDS011;57821;52.202;0.154;2023-09-19T14:14:38;6.20;;;1.45;;
70406;SDS011;57821;52.202;0.154;2023-09-19T14:17:05;8.15;;;1.55;;
70406;SDS011;57821;52.202;0.154;2023-09-19T14:19:33;7.60;;;1.70;;
70406;SDS011;57821;52.202;0.154;2023-09-19T14:22:01;7.60;;;1.70;;
70406;SDS011;57821;52.202;0.154;2023-09-19T14:24:33;8.55;;;1.30;;
70406;SDS011;57821;52.202;0.154;2023-09-19T14:27:01;6.25;;;1.50;;
70406;SDS011;57821;52.202;0.154;2023-09-19T14:29:30;9.60;;;1.42;;
70406;SDS011;57821;52.202;0.154;2023-09-19T14:31:57;5.20;;;1.20;;
70406;SDS011;57821;52.202;0.154;2023-09-19T14:34:24;5.25;;;1.27;;
70406;SDS011;57821;52.202;0.154;2023-09-19T14:36:51;10.88;;;2.95;;
70406;SDS011;57821;52.202;0.154;2023-09-19T14:39:18;5.68;;;1.20;;
70406;SDS011;57821;52.202;0.154;2023-09-19T14:41:46;7.45;;;2.10;;
70406;SDS011;57821;52.202;0.154;2023-09-19T14:44:12;6.80;;;1.60;;
70406;SDS011;57821;52.202;0.154;2023-09-19T14:46:39;5.80;;;1.20;;
70406;SDS011;57821;52.202;0.154;2023-09-19T14:49:06;4.63;;;1.10;;
70406;SDS011;57821;52.202;0.154;2023-09-19T14:51:33;5.10;;;1.23;;
70406;SDS011;57821;52.202;0.154;2023-09-19T14:54:02;5.50;;;1.20;;
70406;SDS011;57821;52.202;0.154;2023-09-19T14:56:29;4.40;;;1.10;;
70406;SDS011;57821;52.202;0.154;2023-09-19T14:58:57;4.57;;;0.95;;
70406;SDS011;57821;52.202;0.154;2023-09-19T15:01:24;6.30;;;1.02;;
70406;SDS011;57821;52.202;0.154;2023-09-19T15:03:50;7.20;;;1.30;;
70406;SDS011;57821;52.202;0.154;2023-09-19T15:06:18;7.28;;;1.33;;
70406;SDS011;57821;52.202;0.154;2023-09-19T15:08:46;4.43;;;0.75;;
70406;SDS011;57821;52.202;0.154;2023-09-19T15:11:14;4.05;;;1.05;;
70406;SDS011;57821;52.202;0.154;2023-09-19T15:13:44;5.82;;;1.15;;
70406;SDS011;57821;52.202;0.154;2023-09-19T15:16:12;5.07;;;1.40;;
70406;SDS011;57821;52.202;0.154;2023-09-19T15:18:41;4.93;;;1.17;;
70406;SDS011;57821;52.202;0.154;2023-09-19T15:21:11;5.72;;;1.48;;
70406;SDS011;57821;52.202;0.154;2023-09-19T15:23:40;5.57;;;1.40;;
70406;SDS011;57821;52.202;0.154;2023-09-19T15:26:12;4.65;;;1.13;;
70406;SDS011;57821;52.202;0.154;2023-09-19T15:28:40;7.13;;;1.30;;
70406;SDS011;57821;52.202;0.154;2023-09-19T15:31:09;4.35;;;1.08;;
70406;SDS011;57821;52.202;0.154;2023-09-19T15:33:38;5.32;;;1.08;;
70406;SDS011;57821;52.202;0.154;2023-09-19T15:36:14;4.82;;;1.20;;
70406;SDS011;57821;52.202;0.154;2023-09-19T15:39:15;6.18;;;1.42;;
70406;SDS011;57821;52.202;0.154;2023-09-19T15:41:38;4.63;;;1.08;;
70406;SDS011;57821;52.202;0.154;2023-09-19T15:44:16;6.80;;;1.10;;
70406;SDS011;57821;52.202;0.154;2023-09-19T15:46:44;6.65;;;1.35;;
70406;SDS011;57821;52.202;0.154;2023-09-19T15:49:11;7.20;;;1.90;;
70406;SDS011;57821;52.202;0.154;2023-09-19T15:51:38;8.52;;;1.88;;
70406;SDS011;57821;52.202;0.154;2023-09-19T15:54:07;6.80;;;0.98;;
70406;SDS011;57821;52.202;0.154;2023-09-19T15:56:36;6.35;;;1.20;;
70406;SDS011;57821;52.202;0.154;2023-09-19T15:59:03;6.70;;;1.45;;
70406;SDS011;57821;52.202;0.154;2023-09-19T16:01:30;8.55;;;1.55;;
70406;SDS011;57821;52.202;0.154;2023-09-19T16:03:57;6.15;;;1.50;;
70406;SDS011;57821;52.202;0.154;2023-09-19T16:06:28;8.40;;;1.50;;
70406;SDS011;57821;52.202;0.154;2023-09-19T16:08:57;7.88;;;1.65;;
70406;SDS011;57821;52.202;0.154;2023-09-19T16:11:25;9.18;;;1.63;;